Cross Roads, Indiana
Current Conditions -  °F | °C
As of 9:15 PM on Friday 31 Oct 2014 (Local Time) from KI67 Reporting Station
Overcast Overcast  
Wind Chill: 29°   Ceiling: 1200
Heat Index: 37°   Visibility: 10mi
Dew Point: 34°   Wind: 15mph
Humidity: 87%   Direction: 360°N
Pressure: 30"   Gusts: 22mph
Location:  39.3079°N, 85.2177°W
Report Text: KI67 010115Z AUTO 36013G19KT 10SM BKN012 OVC023 03/01 A3000 RMK AO1 P0001
Loading
Personal Weather Stations






























Interactive Weather Map
Tropical Storm Tracking
New forecast layout! Learn more

10-Day Weather Forecast

Advertisements
Track Severe Weather on mobile